Time;durP1;ratioP1;P1;durP2;ratioP2;P2;SDS_P1;SDS_P2;PMS_P1;PMS_P2;Temp;Humidity;BMP_temperature;BMP_pressure;BME280_temperature;BME280_humidity;BME280_pressure;Samples;Min_cycle;Max_cycle;Signal;HPM_P1;HPM_P2
2023/12/07 00:01:34;;;;;;;50.30;27.60;;;;;;;-1.07;89.59;100856.27;107514;276;154324;-51
2023/12/07 00:04:11;;;;;;;51.40;27.70;;;;;;;-1.10;89.62;100856.30;107496;277;104994;-56
2023/12/07 00:06:45;;;;;;;46.20;25.80;;;;;;;-1.09;89.59;100857.61;107496;276;156393;-57
2023/12/07 00:09:20;;;;;;;56.80;27.00;;;;;;;-1.13;89.87;100861.82;107465;276;94086;-57
2023/12/07 00:12:06;;;;;;;49.90;26.00;;;;;;;-1.16;89.82;100861.62;107763;276;96353;-57
2023/12/07 00:14:38;;;;;;;52.50;27.00;;;;;;;-1.14;89.89;100862.36;107383;276;156128;-55
2023/12/07 00:17:12;;;;;;;48.90;27.10;;;;;;;-1.09;89.85;100863.30;107759;276;104220;-54
2023/12/07 00:19:53;;;;;;;53.40;27.70;;;;;;;-1.06;89.80;100865.91;107385;276;155363;-55
2023/12/07 00:22:36;;;;;;;48.80;26.40;;;;;;;-1.06;90.08;100866.22;107689;276;95745;-55
2023/12/07 00:25:09;;;;;;;51.00;26.40;;;;;;;-1.04;90.02;100868.41;107555;276;156663;-51
2023/12/07 00:27:52;;;;;;;53.70;26.70;;;;;;;-0.98;90.02;100867.80;107646;276;119461;-55
2023/12/07 00:30:27;;;;;;;51.00;26.10;;;;;;;-0.96;90.16;100869.29;107754;276;106062;-57
2023/12/07 00:33:10;;;;;;;46.40;25.20;;;;;;;-1.01;90.16;100871.70;107513;276;114936;-54
2023/12/07 00:35:49;;;;;;;49.20;25.80;;;;;;;-0.99;90.14;100870.89;107620;276;94831;-52
2023/12/07 00:38:29;;;;;;;52.30;27.20;;;;;;;-0.99;90.24;100869.65;107473;276;154791;-56
2023/12/07 00:41:02;;;;;;;48.60;26.00;;;;;;;-0.96;90.28;100869.48;107568;276;121029;-57
2023/12/07 00:43:40;;;;;;;52.10;26.60;;;;;;;-0.98;90.32;100870.79;107424;276;155146;-53
2023/12/07 00:46:14;;;;;;;50.70;27.20;;;;;;;-0.92;90.26;100870.02;107587;276;114136;-53
2023/12/07 00:48:54;;;;;;;53.70;28.10;;;;;;;-0.86;90.29;100868.02;107550;276;156186;-55
2023/12/07 00:51:32;;;;;;;50.10;27.70;;;;;;;-0.83;90.18;100870.66;107511;276;97663;-55
2023/12/07 00:54:07;;;;;;;54.80;28.00;;;;;;;-0.88;90.29;100869.91;107677;276;120679;-53
2023/12/07 00:56:47;;;;;;;58.30;30.00;;;;;;;-0.87;90.28;100870.57;107420;276;154651;-53
2023/12/07 00:59:21;;;;;;;56.40;29.40;;;;;;;-0.91;90.40;100868.92;107624;276;114512;-53
2023/12/07 01:01:52;;;;;;;;;;;;;;;-0.92;90.32;100866.17;107342;276;155161;-53
2023/12/07 01:04:52;;;;;;;57.10;28.60;;;;;;;-0.95;90.49;100868.83;107565;276;98007;-52
2023/12/07 01:07:35;;;;;;;52.50;27.50;;;;;;;-0.92;90.51;100870.59;107415;276;155037;-52
2023/12/07 01:10:15;;;;;;;52.40;26.90;;;;;;;-0.88;90.55;100872.76;107454;276;104526;-53
2023/12/07 01:12:55;;;;;;;52.30;26.40;;;;;;;-0.86;90.65;100875.14;107550;276;155026;-52
2023/12/07 01:15:31;;;;;;;54.90;26.90;;;;;;;-0.85;90.68;100877.88;107503;276;95218;-52
2023/12/07 01:18:06;;;;;;;55.40;27.60;;;;;;;-0.84;90.71;100871.09;107653;276;97687;-52
2023/12/07 01:20:43;;;;;;;55.00;27.10;;;;;;;-0.83;90.71;100874.01;107351;277;154731;-52
2023/12/07 01:23:23;;;;;;;56.00;29.00;;;;;;;-0.79;90.71;100876.38;107523;276;104882;-50
2023/12/07 01:26:02;;;;;;;54.70;29.20;;;;;;;-0.75;90.75;100873.48;107434;276;155197;-51
2023/12/07 01:28:41;;;;;;;51.90;26.30;;;;;;;-0.72;90.69;100871.80;107535;276;95633;-56
2023/12/07 01:31:17;;;;;;;52.90;26.20;;;;;;;-0.73;90.88;100871.17;107485;276;156225;-56
2023/12/07 01:33:48;;;;;;;52.40;26.50;;;;;;;-0.77;91.01;100871.63;107466;277;122076;-52
2023/12/07 01:36:31;;;;;;;57.60;27.60;;;;;;;-0.76;90.99;100868.55;107577;276;104845;-53
2023/12/07 01:39:12;;;;;;;61.30;27.30;;;;;;;-0.72;91.02;100865.97;107440;277;114452;-54
2023/12/07 01:41:49;;;;;;;57.90;26.30;;;;;;;-0.74;91.18;100869.50;107653;276;95994;-52
2023/12/07 01:44:32;;;;;;;60.70;26.70;;;;;;;-0.76;91.27;100863.61;107412;276;154874;-53
2023/12/07 01:47:08;;;;;;;56.00;25.80;;;;;;;-0.72;91.33;100866.18;107685;276;119974;-52
2023/12/07 01:49:46;;;;;;;61.20;28.90;;;;;;;-0.73;91.41;100864.61;107483;276;156148;-57
2023/12/07 01:52:29;;;;;;;55.40;26.60;;;;;;;-0.71;91.47;100861.14;107493;276;115202;-57
2023/12/07 01:55:13;;;;;;;55.30;26.90;;;;;;;-0.65;91.51;100864.27;107529;276;155568;-55
2023/12/07 01:57:49;;;;;;;59.90;26.30;;;;;;;-0.68;91.65;100860.96;107518;276;97107;-52
2023/12/07 02:00:21;;;;;;;62.40;26.80;;;;;;;-0.65;91.66;100862.68;107707;276;119697;-52
2023/12/07 02:02:53;;;;;;;61.50;28.70;;;;;;;-0.64;91.67;100862.39;107372;276;154892;-55
2023/12/07 02:05:26;;;;;;;55.30;24.60;;;;;;;-0.64;91.85;100857.11;107651;276;112928;-54
2023/12/07 02:08:01;;;;;;;61.30;27.00;;;;;;;-0.63;91.90;100856.88;107423;276;156230;-51
2023/12/07 02:10:39;;;;;;;56.60;26.60;;;;;;;-0.60;91.89;100858.40;107659;276;98289;-51
2023/12/07 02:13:22;;;;;;;59.20;27.10;;;;;;;-0.63;91.95;100857.72;107550;276;156218;-53
2023/12/07 02:16:00;;;;;;;66.50;29.80;;;;;;;-0.59;91.96;100860.68;107554;276;105240;-52
2023/12/07 02:18:45;;;;;;;64.30;28.40;;;;;;;-0.57;92.01;100859.45;107648;276;114782;-53
2023/12/07 02:21:33;;;;;;;58.20;27.00;;;;;;;-0.61;92.18;100860.60;107520;276;94523;-54
2023/12/07 02:24:07;;;;;;;63.20;27.70;;;;;;;-0.60;92.04;100859.11;107681;276;97307;-57
2023/12/07 02:27:00;;;;;;;58.40;27.40;;;;;;;-0.60;92.11;100862.16;107377;276;156073;-57
2023/12/07 02:29:35;;;;;;;54.30;26.00;;;;;;;-0.56;92.10;100865.10;107680;276;105625;-52
2023/12/07 02:32:07;;;;;;;;;;;;;;;-0.57;92.20;100863.53;107377;276;155933;-53
2023/12/07 02:34:44;;;;;;;54.30;25.80;;;;;;;-0.60;92.26;100865.48;107629;276;94308;-54
2023/12/07 02:37:23;;;;;;;50.60;26.10;;;;;;;-0.58;92.12;100865.20;107468;276;156337;-54
2023/12/07 02:40:09;;;;;;;53.40;25.80;;;;;;;-0.53;92.08;100867.90;107588;276;120686;-55
2023/12/07 02:42:47;;;;;;;50.80;25.40;;;;;;;-0.60;92.25;100871.54;107501;276;156200;-56
2023/12/07 02:45:27;;;;;;;55.30;24.80;;;;;;;-0.59;92.22;100869.01;107497;276;113186;-57
2023/12/07 02:48:06;;;;;;;50.40;23.20;;;;;;;-0.56;92.22;100873.23;107670;276;95625;-53
2023/12/07 02:50:47;;;;;;;52.60;24.50;;;;;;;-0.59;92.21;100872.35;107566;276;155074;-53
2023/12/07 02:53:18;;;;;;;51.90;24.10;;;;;;;-0.64;92.33;100871.11;107616;276;120725;-51
2023/12/07 02:55:52;;;;;;;54.80;26.10;;;;;;;-0.62;92.24;100875.73;107471;276;156265;-51
2023/12/07 02:58:27;;;;;;;54.50;24.70;;;;;;;-0.59;92.22;100874.48;107593;276;113207;-51
2023/12/07 03:00:59;;;;;;;48.40;24.50;;;;;;;-0.60;92.30;100872.41;107482;276;156769;-52
2023/12/07 03:03:34;;;;;;;52.30;25.90;;;;;;;-0.56;92.21;100878.14;107529;276;96887;-56
2023/12/07 03:06:07;;;;;;;52.00;24.90;;;;;;;-0.52;92.19;100872.55;107648;276;120487;-57
2023/12/07 03:08:46;;;;;;;52.50;27.20;;;;;;;-0.50;92.25;100872.40;107334;277;155492;-55
2023/12/07 03:11:26;;;;;;;54.70;25.70;;;;;;;-0.47;92.13;100869.90;107636;276;114560;-55
2023/12/07 03:14:06;;;;;;;54.60;26.10;;;;;;;-0.44;92.15;100867.40;107457;276;155187;-55
2023/12/07 03:16:42;;;;;;;57.60;27.40;;;;;;;-0.44;92.22;100865.64;107637;276;97449;-55
2023/12/07 03:19:17;;;;;;;51.90;24.50;;;;;;;-0.43;92.23;100862.17;107516;276;156319;-52
2023/12/07 03:21:58;;;;;;;54.60;26.30;;;;;;;-0.44;92.10;100865.40;107575;276;105824;-52
2023/12/07 03:24:37;;;;;;;51.80;25.20;;;;;;;-0.43;92.22;100867.34;107638;276;114358;-55
2023/12/07 03:27:15;;;;;;;55.60;26.40;;;;;;;-0.42;92.23;100869.23;107464;276;95288;-56
2023/12/07 03:29:52;;;;;;;52.90;26.30;;;;;;;-0.44;92.22;100871.09;107627;273;99355;-57
2023/12/07 03:32:30;;;;;;;56.30;26.00;;;;;;;-0.42;92.22;100876.23;107237;277;156054;-57
2023/12/07 03:35:06;;;;;;;56.60;27.30;;;;;;;-0.37;92.15;100877.15;107395;277;104341;-55
2023/12/07 03:37:46;;;;;;;54.70;26.70;;;;;;;-0.37;92.19;100876.08;107346;277;156238;-54
2023/12/07 03:40:29;;;;;;;53.10;25.90;;;;;;;-0.35;92.22;100880.05;107533;276;95378;-53
2023/12/07 03:43:13;;;;;;;56.20;26.20;;;;;;;-0.38;92.20;100879.19;107581;276;156299;-52
2023/12/07 03:45:52;;;;;;;56.60;26.10;;;;;;;-0.41;92.24;100878.14;107649;276;120366;-51
2023/12/07 03:48:27;;;;;;;57.50;26.90;;;;;;;-0.40;92.24;100874.02;107783;276;105122;-56
2023/12/07 03:51:05;;;;;;;54.40;26.80;;;;;;;-0.40;92.35;100879.83;107494;276;156142;-57
2023/12/07 03:53:39;;;;;;;62.90;29.30;;;;;;;-0.40;92.37;100881.45;107695;276;95871;-55
2023/12/07 03:56:24;;;;;;;56.40;26.90;;;;;;;-0.41;92.35;100879.18;107524;276;156096;-55
2023/12/07 03:59:09;;;;;;;49.10;22.50;;;;;;;-0.45;92.52;100882.52;107676;276;119294;-54
2023/12/07 04:01:55;;;;;;;59.90;26.40;;;;;;;-0.46;92.53;100880.12;107522;276;155049;-54
2023/12/07 04:04:33;;;;;;;54.00;26.50;;;;;;;-0.44;92.49;100884.52;107729;276;114471;-53
2023/12/07 04:07:08;;;;;;;71.40;30.70;;;;;;;-0.43;92.58;100883.94;107574;276;157106;-53
2023/12/07 04:09:40;;;;;;;64.00;28.00;;;;;;;-0.41;92.53;100881.34;107591;276;97433;-54
2023/12/07 04:12:19;;;;;;;63.10;29.30;;;;;;;-0.40;92.43;100881.40;107511;277;121071;-53
2023/12/07 04:14:54;;;;;;;76.60;33.50;;;;;;;-0.43;92.55;100883.59;107502;276;155203;-57
2023/12/07 04:17:31;;;;;;;52.80;25.30;;;;;;;-0.40;92.63;100881.25;107483;277;115385;-57
2023/12/07 04:20:08;;;;;;;49.00;23.90;;;;;;;-0.39;92.64;100878.54;107351;277;155952;-53
2023/12/07 04:22:41;;;;;;;52.90;24.30;;;;;;;-0.38;92.69;100880.38;107464;277;96788;-52
2023/12/07 04:25:13;;;;;;;61.20;26.90;;;;;;;-0.37;92.56;100878.92;107347;276;155171;-48
2023/12/07 04:27:56;;;;;;;52.50;24.10;;;;;;;-0.36;92.62;100876.91;107602;276;105407;-57
2023/12/07 04:30:34;;;;;;;53.90;25.20;;;;;;;-0.33;92.62;100877.00;107485;277;114398;-57
2023/12/07 04:33:18;;;;;;;49.90;22.90;;;;;;;-0.35;92.68;100877.21;107472;277;95809;-55
2023/12/07 04:35:56;;;;;;;49.50;24.60;;;;;;;-0.37;92.66;100875.56;107437;277;98180;-55
2023/12/07 04:38:40;;;;;;;54.40;24.00;;;;;;;-0.37;92.77;100880.34;107303;277;156157;-54
2023/12/07 04:41:18;;;;;;;48.20;24.10;;;;;;;-0.38;92.76;100877.77;107504;277;105927;-54
2023/12/07 04:43:58;;;;;;;53.40;25.30;;;;;;;-0.40;92.75;100880.04;107362;277;156253;-56
2023/12/07 04:46:35;;;;;;;47.40;24.10;;;;;;;-0.38;92.79;100878.48;107493;277;94743;-57
2023/12/07 04:49:13;;;;;;;50.50;23.90;;;;;;;-0.36;92.72;100879.35;107337;276;155462;-57
2023/12/07 04:51:48;;;;;;;49.60;25.30;;;;;;;-0.33;92.70;100876.71;107579;276;118831;-58
2023/12/07 04:54:23;;;;;;;48.80;24.70;;;;;;;-0.31;92.69;100879.92;107540;277;105022;-57
2023/12/07 04:57:00;;;;;;;59.50;29.00;;;;;;;-0.33;92.71;100880.73;107499;276;155944;-58
2023/12/07 04:59:31;;;;;;;48.80;23.70;;;;;;;-0.36;92.93;100881.63;107471;277;95580;-53
2023/12/07 05:02:04;;;;;;;49.90;24.90;;;;;;;-0.33;92.85;100883.92;107419;276;156065;-52
2023/12/07 05:04:36;;;;;;;49.00;25.70;;;;;;;-0.36;93.01;100883.82;107520;276;120795;-52
2023/12/07 05:07:13;;;;;;;47.90;23.80;;;;;;;-0.42;92.93;100885.27;107394;277;155294;-51
2023/12/07 05:09:51;;;;;;;47.40;24.50;;;;;;;-0.39;92.93;100886.34;107474;277;115138;-54
2023/12/07 05:12:30;;;;;;;44.80;22.30;;;;;;;-0.33;92.90;100887.28;106997;277;641274;-55
2023/12/07 05:15:09;;;;;;;47.90;24.10;;;;;;;-0.37;93.02;100888.11;107492;276;155387;-56
2023/12/07 05:17:54;;;;;;;50.40;23.70;;;;;;;-0.34;92.92;100894.05;107640;276;120800;-55
2023/12/07 05:20:28;;;;;;;51.10;23.50;;;;;;;-0.31;93.02;100893.67;107440;275;154858;-55
2023/12/07 05:23:10;;;;;;;56.00;26.90;;;;;;;-0.28;93.03;100892.96;107637;276;113817;-54
2023/12/07 05:25:47;;;;;;;48.80;25.00;;;;;;;-0.33;93.14;100893.98;107475;276;156387;-52
2023/12/07 05:28:18;;;;;;;49.00;23.80;;;;;;;-0.31;93.10;100897.91;107644;276;98055;-51
2023/12/07 05:30:56;;;;;;;44.60;22.50;;;;;;;-0.29;93.10;100896.24;107508;276;155025;-51
2023/12/07 05:33:31;;;;;;;49.00;24.70;;;;;;;-0.32;93.17;100897.32;107631;276;104439;-54
2023/12/07 05:36:07;;;;;;;47.00;24.10;;;;;;;-0.33;93.22;100897.87;107647;276;113843;-56
2023/12/07 05:38:48;;;;;;;45.00;22.00;;;;;;;-0.36;93.24;100900.62;107540;276;155545;-60
2023/12/07 05:41:20;;;;;;;48.70;25.20;;;;;;;-0.35;93.24;100902.33;107540;276;99190;-59
2023/12/07 05:43:53;;;;;;;45.20;21.60;;;;;;;-0.28;93.32;100903.73;107379;276;155260;-57
2023/12/07 05:46:31;;;;;;;45.00;21.50;;;;;;;-0.29;93.38;100903.98;107680;276;105033;-58
2023/12/07 05:49:04;;;;;;;48.90;23.60;;;;;;;-0.29;93.41;100904.40;107513;276;154929;-58
2023/12/07 05:51:37;;;;;;;45.50;23.40;;;;;;;-0.29;93.35;100903.11;107692;276;94967;-51
2023/12/07 05:54:11;;;;;;;49.30;24.40;;;;;;;-0.28;93.24;100900.59;107725;276;95222;-54
2023/12/07 05:56:50;;;;;;;37.80;19.50;;;;;;;-0.25;93.15;100905.83;107343;276;156921;-54
2023/12/07 05:59:26;;;;;;;52.50;24.20;;;;;;;-0.24;93.21;100905.77;107668;276;104604;-50
2023/12/07 06:02:11;;;;;;;40.50;21.90;;;;;;;-0.26;93.21;100906.30;107552;276;155180;-56
2023/12/07 06:04:46;;;;;;;49.00;24.60;;;;;;;-0.29;93.30;100911.05;107629;276;93715;-57
2023/12/07 06:07:21;;;;;;;44.10;23.10;;;;;;;-0.25;93.19;100916.62;107561;276;155424;-57
2023/12/07 06:09:57;;;;;;;46.60;23.50;;;;;;;-0.24;93.11;100923.43;107673;276;120787;-55
2023/12/07 06:12:41;;;;;;;45.60;21.80;;;;;;;-0.23;93.20;100921.48;107674;276;104307;-54
2023/12/07 06:15:14;;;;;;;41.60;21.70;;;;;;;-0.27;93.19;100923.12;107446;276;115266;-56
2023/12/07 06:17:49;;;;;;;48.10;22.70;;;;;;;-0.28;93.25;100930.98;107668;276;95196;-53
2023/12/07 06:20:30;;;;;;;44.40;22.10;;;;;;;-0.24;93.22;100933.70;107436;276;156191;-53
2023/12/07 06:23:12;;;;;;;48.00;23.20;;;;;;;-0.23;93.24;100934.88;107623;276;120268;-51
2023/12/07 06:25:50;;;;;;;41.20;23.90;;;;;;;-0.22;93.23;100937.65;107483;276;154233;-58
2023/12/07 06:28:32;;;;;;;40.00;20.50;;;;;;;-0.20;93.31;100943.34;107582;276;114667;-52
2023/12/07 06:31:08;;;;;;;42.30;21.10;;;;;;;-0.18;93.23;100945.34;107517;276;155109;-51
2023/12/07 06:33:41;;;;;;;43.40;22.50;;;;;;;-0.17;93.20;100946.33;107677;276;96532;-55
2023/12/07 06:36:21;;;;;;;37.50;21.10;;;;;;;-0.14;93.18;100945.73;107660;276;119384;-53
2023/12/07 06:38:59;;;;;;;39.00;21.90;;;;;;;-0.17;93.26;100947.00;107543;276;155068;-57
2023/12/07 06:41:30;;;;;;;42.30;22.70;;;;;;;-0.15;93.29;100950.25;107629;276;113438;-56
2023/12/07 06:44:05;;;;;;;41.20;20.70;;;;;;;-0.17;93.30;100954.27;107496;276;155309;-53
2023/12/07 06:46:45;;;;;;;39.50;21.40;;;;;;;-0.19;93.35;100953.02;107661;276;97237;-58
2023/12/07 06:49:23;;;;;;;40.40;22.60;;;;;;;-0.14;93.25;100955.11;107553;276;156092;-57
2023/12/07 06:51:57;;;;;;;39.20;21.10;;;;;;;-0.10;93.23;100956.10;107599;276;105026;-57
2023/12/07 06:54:32;;;;;;;38.60;21.00;;;;;;;-0.10;93.21;100961.23;107657;276;111618;-53
2023/12/07 06:57:07;;;;;;;44.40;22.00;;;;;;;-0.12;93.29;100962.80;107493;276;155146;-53
2023/12/07 06:59:40;;;;;;;38.40;21.80;;;;;;;-0.06;93.29;100963.59;107653;276;95557;-57
2023/12/07 07:02:23;;;;;;;38.40;20.40;;;;;;;-0.05;93.24;100964.05;107535;276;156218;-57
2023/12/07 07:04:57;;;;;;;38.90;21.50;;;;;;;-0.01;93.27;100964.11;107626;276;106165;-55
2023/12/07 07:07:31;;;;;;;44.50;22.20;;;;;;;-0.02;93.26;100962.56;107470;276;156112;-54
2023/12/07 07:10:09;;;;;;;39.90;22.30;;;;;;;-0.02;93.29;100968.11;107636;276;94605;-59
2023/12/07 07:12:43;;;;;;;39.40;22.10;;;;;;;0.03;93.29;100966.70;107686;276;97097;-54
2023/12/07 07:15:15;;;;;;;42.10;22.40;;;;;;;0.05;93.20;100968.80;107543;276;120782;-54
2023/12/07 07:17:53;;;;;;;40.20;24.00;;;;;;;0.05;93.20;100968.48;107660;276;104235;-55
2023/12/07 07:20:28;;;;;;;39.40;22.60;;;;;;;0.08;93.31;100965.98;107352;277;154797;-56
2023/12/07 07:23:01;;;;;;;41.70;23.10;;;;;;;0.13;93.13;100964.94;107662;275;95032;-52
2023/12/07 07:25:35;;;;;;;42.80;23.40;;;;;;;0.12;93.18;100966.04;107681;275;156693;-52
2023/12/07 07:28:07;;;;;;;41.20;22.80;;;;;;;0.13;93.10;100968.27;107660;276;120991;-53
2023/12/07 07:30:39;;;;;;;41.80;22.40;;;;;;;0.15;93.18;100966.70;107688;276;105435;-53
2023/12/07 07:33:12;;;;;;;44.40;24.00;;;;;;;0.15;93.10;100971.64;107375;276;155587;-54
2023/12/07 07:35:50;;;;;;;40.00;22.30;;;;;;;0.20;93.16;100967.27;107601;276;95665;-55
2023/12/07 07:38:25;;;;;;;41.40;21.80;;;;;;;0.24;93.07;100968.30;107553;276;154888;-57
2023/12/07 07:40:56;;;;;;;41.50;23.30;;;;;;;0.22;93.12;100967.05;107668;276;119612;-58
2023/12/07 07:43:28;;;;;;;43.30;23.20;;;;;;;0.27;93.09;100963.38;107590;276;156135;-56
2023/12/07 07:45:59;;;;;;;38.00;21.90;;;;;;;0.32;93.04;100966.16;107647;276;114615;-56
2023/12/07 07:48:34;;;;;;;41.50;22.40;;;;;;;0.33;93.03;100965.05;107702;276;95589;-51
2023/12/07 07:51:06;;;;;;;47.60;26.80;;;;;;;0.29;93.09;100966.73;107526;276;154864;-51
2023/12/07 07:53:42;;;;;;;49.30;26.00;;;;;;;0.31;93.07;100962.84;107744;276;121159;-55
2023/12/07 07:56:21;;;;;;;47.60;26.00;;;;;;;0.26;93.05;100966.77;107575;276;154250;-55
2023/12/07 07:59:03;;;;;;;48.00;25.10;;;;;;;0.28;93.11;100969.69;107670;276;114729;-57
2023/12/07 08:01:40;;;;;;;63.70;32.10;;;;;;;0.37;92.95;100970.77;107529;276;154959;-57
2023/12/07 08:04:16;;;;;;;81.20;36.00;;;;;;;0.42;92.99;100968.95;107692;276;96540;-56
2023/12/07 08:06:48;;;;;;;87.70;38.00;;;;;;;0.45;92.86;100966.23;107672;276;121606;-55
2023/12/07 08:09:26;;;;;;;50.10;27.40;;;;;;;0.52;92.88;100968.23;107515;271;103880;-57
2023/12/07 08:12:08;;;;;;;50.60;27.80;;;;;;;0.55;92.73;100969.97;107658;276;114301;-56
2023/12/07 08:14:48;;;;;;;88.90;41.60;;;;;;;0.59;92.75;100971.38;107504;276;155811;-55
2023/12/07 08:17:35;;;;;;;73.90;37.30;;;;;;;0.61;92.86;100973.26;107736;276;97116;-55
2023/12/07 08:20:11;;;;;;;71.00;34.90;;;;;;;0.61;92.74;100977.34;107433;276;155119;-52
2023/12/07 08:22:50;;;;;;;66.60;34.90;;;;;;;0.59;92.70;100976.39;107515;276;104465;-51
2023/12/07 08:25:24;;;;;;;55.60;30.80;;;;;;;0.60;92.76;100977.77;107525;276;155952;-52
2023/12/07 08:28:03;;;;;;;43.50;24.70;;;;;;;0.65;92.71;100979.88;107660;276;94009;-55
2023/12/07 08:30:43;;;;;;;46.40;25.00;;;;;;;0.72;92.64;100984.33;107681;276;97093;-56
2023/12/07 08:33:17;;;;;;;41.80;26.90;;;;;;;0.76;92.48;100986.48;107514;276;154508;-57
2023/12/07 08:35:58;;;;;;;49.30;28.10;;;;;;;0.78;92.55;100990.10;107682;276;104169;-57
2023/12/07 08:38:29;;;;;;;44.30;26.50;;;;;;;0.80;92.44;100991.54;107572;276;154445;-55
2023/12/07 08:41:06;;;;;;;52.40;33.10;;;;;;;0.85;92.35;100989.34;107674;276;93923;-55
2023/12/07 08:43:48;;;;;;;44.60;26.50;;;;;;;0.86;92.45;100987.32;107515;276;155149;-55
2023/12/07 08:46:30;;;;;;;41.60;25.10;;;;;;;0.91;92.31;100980.90;107629;276;120579;-56
2023/12/07 08:49:08;;;;;;;45.40;27.40;;;;;;;0.93;92.21;100979.55;107511;276;155822;-54
2023/12/07 08:51:53;;;;;;;49.20;29.40;;;;;;;0.87;92.06;100979.27;107629;276;113554;-55
2023/12/07 08:54:30;;;;;;;43.00;25.20;;;;;;;0.93;92.19;100979.05;107661;269;95088;-57
2023/12/07 08:57:13;;;;;;;46.80;26.40;;;;;;;0.90;92.13;100977.65;107511;276;155550;-57
2023/12/07 08:59:54;;;;;;;49.10;26.20;;;;;;;0.87;92.14;100979.47;107639;276;121102;-57
2023/12/07 09:02:34;;;;;;;39.30;25.20;;;;;;;0.85;92.20;100978.54;107461;276;156328;-56
2023/12/07 09:05:08;;;;;;;45.50;26.20;;;;;;;0.86;92.08;100979.94;107657;276;114294;-55
2023/12/07 09:07:50;;;;;;;44.70;27.10;;;;;;;0.92;92.05;100981.89;107522;276;155598;-54
2023/12/07 09:10:33;;;;;;;47.00;28.50;;;;;;;0.99;91.93;100982.65;107638;276;98389;-54
2023/12/07 09:13:09;;;;;;;43.70;27.70;;;;;;;0.94;91.83;100985.48;107524;276;154208;-54
2023/12/07 09:15:48;;;;;;;40.40;25.70;;;;;;;0.97;91.76;100988.48;107637;276;105593;-52
2023/12/07 09:18:29;;;;;;;48.30;28.10;;;;;;;0.94;91.76;100988.14;107647;276;113016;-55
2023/12/07 09:21:04;;;;;;;41.40;26.00;;;;;;;0.94;91.74;100990.98;107511;276;156052;-55
2023/12/07 09:23:40;;;;;;;49.10;28.20;;;;;;;0.94;91.71;100987.28;107699;276;97841;-55
2023/12/07 09:26:14;;;;;;;52.70;28.20;;;;;;;0.91;91.64;100991.05;107535;276;154809;-57
2023/12/07 09:28:53;;;;;;;63.30;33.80;;;;;;;0.97;91.60;100990.80;107701;276;104190;-53
2023/12/07 09:31:24;;;;;;;55.90;31.40;;;;;;;0.99;91.52;100987.75;107528;276;155736;-53
2023/12/07 09:33:57;;;;;;;45.20;26.10;;;;;;;1.06;91.54;100986.38;107665;276;95349;-54
2023/12/07 09:36:31;;;;;;;43.30;25.70;;;;;;;1.12;91.46;100980.25;107707;276;97727;-53
2023/12/07 09:39:03;;;;;;;40.20;25.60;;;;;;;1.10;91.35;100980.20;107533;276;154505;-54
2023/12/07 09:41:42;;;;;;;47.10;29.00;;;;;;;1.04;91.52;100978.92;107637;276;105993;-56
2023/12/07 09:44:17;;;;;;;43.10;26.90;;;;;;;1.07;91.42;100975.66;107328;276;153549;-53
2023/12/07 09:46:54;;;;;;;42.40;25.70;;;;;;;1.10;91.45;100974.34;107646;276;95928;-53
2023/12/07 09:49:36;;;;;;;42.70;26.20;;;;;;;1.08;91.42;100982.86;107456;276;154645;-54
2023/12/07 09:52:11;;;;;;;39.10;26.10;;;;;;;1.05;91.38;100986.25;107560;276;119758;-54
2023/12/07 09:54:46;;;;;;;40.10;26.00;;;;;;;1.10;91.31;100993.55;107544;276;103886;-55
2023/12/07 09:57:21;;;;;;;47.10;28.80;;;;;;;1.16;91.33;100993.09;107523;276;114904;-55
2023/12/07 10:00:01;;;;;;;48.00;27.60;;;;;;;1.22;91.15;100990.65;107527;276;95884;-55
2023/12/07 10:02:39;;;;;;;47.60;27.60;;;;;;;1.26;91.09;100989.64;107574;276;154630;-55
2023/12/07 10:05:16;;;;;;;44.70;25.90;;;;;;;1.21;91.09;100989.32;107644;276;120579;-57
2023/12/07 10:07:51;;;;;;;43.20;25.70;;;;;;;1.23;90.91;100986.86;107498;276;154843;-52
2023/12/07 10:10:28;;;;;;;52.30;29.20;;;;;;;1.19;90.93;100990.66;107587;276;113303;-52
2023/12/07 10:13:01;;;;;;;;;;;;;;;1.21;90.93;100988.80;107526;276;155652;-56
2023/12/07 10:15:43;;;;;;;50.50;29.20;;;;;;;1.13;90.95;100993.61;107683;276;96863;-58
2023/12/07 10:18:28;;;;;;;57.70;33.60;;;;;;;1.17;91.03;100993.34;107626;276;120937;-56
2023/12/07 10:21:02;;;;;;;46.00;26.00;;;;;;;1.22;90.96;100987.13;107574;276;154702;-55
2023/12/07 10:23:40;;;;;;;50.50;29.70;;;;;;;1.26;90.94;100988.77;107936;275;113516;-57
2023/12/07 10:26:24;;;;;;;47.30;28.50;;;;;;;1.28;91.04;100986.45;107600;276;154815;-56
2023/12/07 10:29:00;;;;;;;45.00;27.10;;;;;;;1.30;90.93;100992.04;107630;276;97997;-55
2023/12/07 10:31:35;;;;;;;45.30;25.00;;;;;;;1.32;90.95;100990.23;107553;276;154899;-55
2023/12/07 10:34:12;;;;;;;40.20;25.10;;;;;;;1.29;90.89;100985.20;107669;276;106299;-53
2023/12/07 10:36:48;;;;;;;41.60;25.70;;;;;;;1.34;91.00;100989.54;107537;276;113597;-53
2023/12/07 10:39:24;;;;;;;45.10;26.00;;;;;;;1.38;91.12;100990.69;107525;276;94886;-53
2023/12/07 10:42:10;;;;;;;38.80;26.20;;;;;;;1.48;91.05;100988.88;107671;276;98962;-53
2023/12/07 10:44:53;;;;;;;44.70;28.00;;;;;;;1.56;90.83;100988.04;107357;276;155709;-52
2023/12/07 10:47:37;;;;;;;43.30;26.70;;;;;;;1.66;90.68;100991.12;107653;276;105877;-53
2023/12/07 10:50:14;;;;;;;44.00;26.90;;;;;;;1.72;90.55;100984.13;107437;276;154210;-54
2023/12/07 10:52:54;;;;;;;40.30;25.70;;;;;;;1.66;90.57;100990.09;107641;276;95279;-54
2023/12/07 10:55:41;;;;;;;46.60;27.60;;;;;;;1.64;90.68;100980.85;107528;276;154930;-54
2023/12/07 10:58:15;;;;;;;40.80;26.70;;;;;;;1.70;90.67;100980.92;107653;276;120502;-53
2023/12/07 11:00:47;;;;;;;46.20;27.30;;;;;;;1.65;90.54;100981.31;107675;276;104344;-53
2023/12/07 11:03:29;;;;;;;44.10;27.60;;;;;;;1.68;90.53;100983.77;107541;275;115408;-54
2023/12/07 11:06:08;;;;;;;43.30;28.20;;;;;;;1.80;90.28;100978.91;107905;275;96267;-54
2023/12/07 11:08:55;;;;;;;39.60;26.20;;;;;;;1.84;90.02;100978.80;107487;275;155492;-57
2023/12/07 11:11:37;;;;;;;45.30;27.30;;;;;;;1.74;90.16;100976.46;107662;276;120670;-57
2023/12/07 11:14:15;;;;;;;40.60;27.20;;;;;;;1.66;90.21;100974.98;107540;276;155396;-57
2023/12/07 11:16:48;;;;;;;43.20;27.30;;;;;;;1.68;90.31;100970.55;107655;276;113992;-58
2023/12/07 11:19:55;;;;;;;56.50;33.30;;;;;;;1.71;90.21;100968.91;107553;276;155207;-54
2023/12/07 11:22:34;;;;;;;95.90;43.70;;;;;;;1.68;90.01;100971.11;107680;276;97370;-54
2023/12/07 11:25:10;;;;;;;75.40;37.30;;;;;;;1.68;90.24;100965.04;107584;276;154907;-52
2023/12/07 11:27:41;;;;;;;43.50;27.90;;;;;;;1.82;90.17;100958.67;107655;276;105214;-52
2023/12/07 11:30:15;;;;;;;71.80;39.50;;;;;;;1.86;89.96;100961.55;107643;276;114262;-52
2023/12/07 11:32:53;;;;;;;80.50;44.10;;;;;;;1.79;90.02;100964.73;107561;276;155233;-57
2023/12/07 11:35:28;;;;;;;71.00;39.70;;;;;;;1.73;89.97;100963.95;107662;276;97188;-58
2023/12/07 11:38:30;;;;;;;68.80;40.60;;;;;;;1.66;90.00;100964.34;107537;276;154377;-57
2023/12/07 11:41:14;;;;;;;58.90;34.80;;;;;;;1.65;89.93;100968.52;107700;276;103802;-58
2023/12/07 11:43:58;;;;;;;54.10;32.70;;;;;;;1.53;89.79;100967.34;107535;276;155996;-57
2023/12/07 11:46:38;;;;;;;58.00;34.50;;;;;;;1.49;89.91;100968.91;107644;276;96224;-58
2023/12/07 11:49:23;;;;;;;52.00;32.20;;;;;;;1.52;89.94;100973.80;107556;276;155955;-56
2023/12/07 11:52:15;;;;;;;62.90;35.60;;;;;;;1.49;90.02;100974.19;107638;276;120077;-56
2023/12/07 11:54:50;;;;;;;76.10;42.00;;;;;;;1.48;89.99;100974.30;107744;276;105152;-55